Time;durP1;ratioP1;P1;durP2;ratioP2;P2;SDS_P1;SDS_P2;PMS_P1;PMS_P2;Temp;Humidity;BMP_temperature;BMP_pressure;BME280_temperature;BME280_humidity;BME280_pressure;Samples;Min_cycle;Max_cycle;Signal;HPM_P1;HPM_P2
2023/09/02 00:02:15;;;;;;;4.57;4.27;;;16.60;99.90;;;;;;5009390;28;20202;-55
2023/09/02 00:04:42;;;;;;;4.97;4.57;;;16.60;99.90;;;;;;5010940;28;20250;-55
2023/09/02 00:07:09;;;;;;;5.43;5.13;;;16.50;99.90;;;;;;5010634;28;20203;-55
2023/09/02 00:09:36;;;;;;;4.93;4.63;;;16.50;99.90;;;;;;5014224;28;20268;-56
2023/09/02 00:12:06;;;;;;;4.30;4.10;;;16.40;99.90;;;;;;5014838;28;20211;-55
2023/09/02 00:14:33;;;;;;;4.90;4.40;;;16.40;99.90;;;;;;5015057;28;20222;-55
2023/09/02 00:17:00;;;;;;;5.53;5.13;;;16.40;99.90;;;;;;5014187;28;20215;-55
2023/09/02 00:19:27;;;;;;;5.17;4.87;;;16.40;99.90;;;;;;5012264;28;20620;-55
2023/09/02 00:21:54;;;;;;;4.40;4.10;;;16.40;99.90;;;;;;5004193;28;20744;-55
2023/09/02 00:24:21;;;;;;;4.13;3.83;;;16.40;99.90;;;;;;5013859;28;20273;-55
2023/09/02 00:26:49;;;;;;;5.10;4.70;;;16.30;99.90;;;;;;5014627;28;20253;-55
2023/09/02 00:29:17;;;;;;;4.80;4.50;;;16.30;99.90;;;;;;5014192;28;20285;-55
2023/09/02 00:31:44;;;;;;;6.40;5.17;;;16.30;99.90;;;;;;5014409;28;20249;-56
2023/09/02 00:34:11;;;;;;;4.53;4.20;;;16.20;99.90;;;;;;5013848;28;20210;-55
2023/09/02 00:36:38;;;;;;;5.33;4.60;;;16.20;99.90;;;;;;5011197;28;20223;-55
2023/09/02 00:39:06;;;;;;;7.53;5.60;;;16.20;99.90;;;;;;5014549;28;20532;-56
2023/09/02 00:41:38;;;;;;;5.20;4.90;;;16.20;99.90;;;;;;5014546;28;20263;-55
2023/09/02 00:44:06;;;;;;;5.50;5.07;;;16.20;99.90;;;;;;5013888;28;20286;-55
2023/09/02 00:46:34;;;;;;;6.47;5.97;;;16.20;99.90;;;;;;5014371;28;20269;-56
2023/09/02 00:49:02;;;;;;;5.40;5.10;;;16.20;99.90;;;;;;5013347;28;20681;-55
2023/09/02 00:51:29;;;;;;;6.63;6.03;;;16.10;99.90;;;;;;5012141;28;20199;-55
2023/09/02 00:53:56;;;;;;;6.43;5.83;;;16.10;99.90;;;;;;5010409;28;20716;-55
2023/09/02 00:56:24;;;;;;;6.17;5.77;;;16.00;99.90;;;;;;5008253;28;20289;-55
2023/09/02 00:58:52;;;;;;;6.57;6.07;;;16.10;99.90;;;;;;5014219;28;20288;-55
2023/09/02 01:01:19;;;;;;;6.90;6.17;;;16.10;99.90;;;;;;5013480;28;20207;-55
2023/09/02 01:03:48;;;;;;;6.77;6.13;;;16.00;99.90;;;;;;5013270;28;20681;-55
2023/09/02 01:06:15;;;;;;;6.43;5.87;;;16.00;99.90;;;;;;5013874;28;20224;-54
2023/09/02 01:08:42;;;;;;;6.90;6.23;;;16.00;99.90;;;;;;5007359;28;20231;-55
2023/09/02 01:11:09;;;;;;;7.70;6.27;;;15.90;99.90;;;;;;5008658;28;20253;-55
2023/09/02 01:13:36;;;;;;;6.63;5.60;;;15.90;99.90;;;;;;5013167;28;20321;-55
2023/09/02 01:16:04;;;;;;;6.13;5.10;;;15.90;99.90;;;;;;5013728;28;20301;-55
2023/09/02 01:18:31;;;;;;;6.60;5.30;;;15.90;99.90;;;;;;5011926;28;20200;-55
2023/09/02 01:21:18;;;;;;;4.13;3.83;;;15.80;99.90;;;;;;5013896;28;20269;-55
2023/09/02 01:24:06;;;;;;;5.53;5.07;;;15.80;99.90;;;;;;5012760;28;20265;-56
2023/09/02 01:27:07;;;;;;;5.23;4.83;;;15.80;99.90;;;;;;5009183;28;20192;-55
2023/09/02 01:29:38;;;;;;;5.03;4.53;;;15.80;99.90;;;;;;5001357;28;20289;-55
2023/09/02 01:32:07;;;;;;;4.63;4.30;;;15.80;99.90;;;;;;5012480;28;20211;-55
2023/09/02 01:34:35;;;;;;;4.13;3.93;;;15.80;99.90;;;;;;5013320;28;20720;-55
2023/09/02 01:37:04;;;;;;;4.30;4.00;;;15.80;99.90;;;;;;5013684;28;20227;-55
2023/09/02 01:39:32;;;;;;;4.47;4.20;;;15.80;99.90;;;;;;5013493;28;20204;-56
2023/09/02 01:42:01;;;;;;;3.97;3.77;;;15.80;99.90;;;;;;5004002;28;20204;-56
2023/09/02 01:44:30;;;;;;;4.07;3.87;;;15.80;99.90;;;;;;5011901;28;20311;-56
2023/09/02 01:46:57;;;;;;;4.83;4.53;;;15.80;99.90;;;;;;5013090;28;20210;-55
2023/09/02 01:49:24;;;;;;;4.73;4.53;;;15.80;99.90;;;;;;5013470;28;20207;-55
2023/09/02 01:51:52;;;;;;;5.13;4.73;;;15.80;99.90;;;;;;5013203;28;20293;-54
2023/09/02 01:54:19;;;;;;;5.47;5.07;;;15.90;99.90;;;;;;5012388;28;20238;-55
2023/09/02 01:56:47;;;;;;;5.33;5.03;;;15.90;99.90;;;;;;5010636;28;20223;-55
2023/09/02 01:59:16;;;;;;;5.47;4.97;;;15.90;99.90;;;;;;5010605;28;20616;-55
2023/09/02 02:01:42;;;;;;;5.20;4.90;;;15.90;99.90;;;;;;5012767;28;20204;-55
2023/09/02 02:04:19;;;;;;;6.00;5.60;;;15.80;99.90;;;;;;5012383;28;20677;-55
2023/09/02 02:06:47;;;;;;;7.57;6.70;;;15.80;99.90;;;;;;5012923;28;20273;-55
2023/09/02 02:09:24;;;;;;;7.40;6.90;;;15.80;99.90;;;;;;5012222;28;20262;-55
2023/09/02 02:11:52;;;;;;;6.77;6.23;;;15.70;99.90;;;;;;5012790;28;20550;-56
2023/09/02 02:14:20;;;;;;;7.20;6.17;;;15.70;99.90;;;;;;5010482;28;20226;-55
2023/09/02 02:16:47;;;;;;;7.00;6.40;;;15.60;99.90;;;;;;5012930;28;20218;-55
2023/09/02 02:19:14;;;;;;;6.83;6.43;;;15.50;99.90;;;;;;5011860;28;20294;-55
2023/09/02 02:21:41;;;;;;;5.80;5.17;;;15.50;99.90;;;;;;5011282;28;20669;-55
2023/09/02 02:24:09;;;;;;;5.97;5.67;;;15.40;99.90;;;;;;5004216;28;20577;-55
2023/09/02 02:26:36;;;;;;;6.00;5.47;;;15.40;99.90;;;;;;5010431;28;20195;-55
2023/09/02 02:29:03;;;;;;;5.50;5.17;;;15.40;99.90;;;;;;5012522;28;20211;-55
2023/09/02 02:31:33;;;;;;;6.07;5.67;;;15.40;99.90;;;;;;5012105;28;20203;-55
2023/09/02 02:34:00;;;;;;;6.13;5.73;;;15.30;99.90;;;;;;5009647;28;20240;-55
2023/09/02 02:36:27;;;;;;;7.20;5.67;;;15.30;99.90;;;;;;5012104;28;20266;-54
2023/09/02 02:38:54;;;;;;;5.80;5.30;;;15.30;99.90;;;;;;5012365;28;20258;-55
2023/09/02 02:41:21;;;;;;;7.17;6.67;;;15.30;99.90;;;;;;5012533;28;20674;-55
2023/09/02 02:43:48;;;;;;;5.33;4.93;;;15.20;99.90;;;;;;5011610;28;20211;-55
2023/09/02 02:46:15;;;;;;;6.17;5.67;;;15.20;99.90;;;;;;5010468;28;20234;-55
2023/09/02 02:48:43;;;;;;;7.33;6.73;;;15.20;99.90;;;;;;5007544;28;20624;-55
2023/09/02 02:51:10;;;;;;;7.27;6.80;;;15.20;99.90;;;;;;5011990;28;20230;-54
2023/09/02 02:53:37;;;;;;;6.57;6.17;;;15.30;99.90;;;;;;5011651;28;20373;-56
2023/09/02 02:56:04;;;;;;;6.77;6.37;;;15.20;99.90;;;;;;5011972;28;20231;-55
2023/09/02 02:58:32;;;;;;;5.90;5.60;;;15.30;99.90;;;;;;5012086;28;20715;-55
2023/09/02 03:01:04;;;;;;;5.97;5.63;;;15.30;99.90;;;;;;5010994;28;20682;-55
2023/09/02 03:03:31;;;;;;;6.60;6.13;;;15.20;99.90;;;;;;5011159;28;20231;-56
2023/09/02 03:06:01;;;;;;;5.77;5.40;;;15.20;99.90;;;;;;5007103;28;20223;-55
2023/09/02 03:08:28;;;;;;;5.50;5.10;;;15.10;99.90;;;;;;5006691;28;20207;-55
2023/09/02 03:10:58;;;;;;;5.90;5.50;;;15.10;99.90;;;;;;5011892;28;20207;-55
2023/09/02 03:13:25;;;;;;;5.07;4.77;;;15.00;99.90;;;;;;5009616;28;20203;-55
2023/09/02 03:15:53;;;;;;;5.00;4.70;;;15.00;99.90;;;;;;5011366;28;20215;-55
2023/09/02 03:18:22;;;;;;;4.70;4.40;;;14.90;99.90;;;;;;5010985;28;20214;-55
2023/09/02 03:20:49;;;;;;;5.07;4.70;;;14.90;99.90;;;;;;5010591;28;20257;-55
2023/09/02 03:23:21;;;;;;;5.63;5.23;;;14.90;99.90;;;;;;5011190;28;20195;-55
2023/09/02 03:25:48;;;;;;;4.70;4.50;;;14.80;99.90;;;;;;5008248;28;20664;-55
2023/09/02 03:28:15;;;;;;;5.17;4.77;;;14.80;99.90;;;;;;5011791;28;20303;-55
2023/09/02 03:30:42;;;;;;;5.87;4.70;;;14.80;99.90;;;;;;5009198;28;21036;-55
2023/09/02 03:33:09;;;;;;;5.10;4.70;;;14.80;99.90;;;;;;5009812;28;20207;-55
2023/09/02 03:35:39;;;;;;;5.37;5.07;;;14.80;99.90;;;;;;5009953;28;20848;-54
2023/09/02 03:38:06;;;;;;;4.03;3.83;;;14.80;99.90;;;;;;5005850;28;20234;-55
2023/09/02 03:40:35;;;;;;;4.53;4.13;;;14.90;99.90;;;;;;5010027;28;20261;-54
2023/09/02 03:43:02;;;;;;;4.57;4.17;;;14.90;99.90;;;;;;5008955;28;21054;-56
2023/09/02 03:45:29;;;;;;;4.83;4.53;;;14.80;99.90;;;;;;5010344;28;20211;-55
2023/09/02 03:47:56;;;;;;;5.27;4.87;;;14.80;99.90;;;;;;5010371;28;20761;-55
2023/09/02 03:50:25;;;;;;;3.70;3.50;;;14.90;99.90;;;;;;5009586;28;20676;-55
2023/09/02 03:52:52;;;;;;;4.63;4.30;;;14.80;99.90;;;;;;5009606;28;20242;-55
2023/09/02 03:55:19;;;;;;;4.17;3.90;;;14.80;99.90;;;;;;5008737;28;20313;-55
2023/09/02 03:57:47;;;;;;;4.27;3.97;;;14.80;99.90;;;;;;5010353;28;20705;-55
2023/09/02 04:00:17;;;;;;;4.10;3.90;;;14.80;99.90;;;;;;5010033;28;20222;-55
2023/09/02 04:02:44;;;;;;;4.20;3.90;;;14.80;99.90;;;;;;5007062;28;20298;-55
2023/09/02 04:05:11;;;;;;;4.40;4.00;;;14.80;99.90;;;;;;5006715;28;20233;-55
2023/09/02 04:07:38;;;;;;;4.00;3.70;;;14.80;99.90;;;;;;5009834;28;20199;-55
2023/09/02 04:10:06;;;;;;;4.57;4.20;;;14.70;99.90;;;;;;5008961;28;20202;-55
2023/09/02 04:12:34;;;;;;;3.47;3.27;;;14.70;99.90;;;;;;5009329;28;20265;-56
2023/09/02 04:15:03;;;;;;;3.90;3.70;;;14.70;99.90;;;;;;5005922;28;20298;-56
2023/09/02 04:17:30;;;;;;;4.17;3.80;;;14.70;99.90;;;;;;5009221;28;20219;-55
2023/09/02 04:20:00;;;;;;;3.37;3.17;;;14.70;99.90;;;;;;5008331;28;20219;-55
2023/09/02 04:22:29;;;;;;;5.03;3.57;;;14.60;99.90;;;;;;5009257;28;20231;-55
2023/09/02 04:24:56;;;;;;;3.93;3.37;;;14.70;99.90;;;;;;5007745;28;20258;-56
2023/09/02 04:27:24;;;;;;;3.40;3.07;;;14.70;99.90;;;;;;5009846;28;20495;-54
2023/09/02 04:29:53;;;;;;;3.33;3.13;;;14.60;99.90;;;;;;5009597;28;20257;-55
2023/09/02 04:32:21;;;;;;;3.60;3.30;;;14.70;99.90;;;;;;5009007;28;20226;-55
2023/09/02 04:34:48;;;;;;;3.30;3.00;;;14.70;99.90;;;;;;5006432;28;20273;-55
2023/09/02 04:37:15;;;;;;;2.73;2.60;;;14.70;99.90;;;;;;5009719;28;20219;-55
2023/09/02 04:39:42;;;;;;;2.80;2.70;;;14.70;99.90;;;;;;5009726;28;20686;-55
2023/09/02 04:42:10;;;;;;;3.33;3.20;;;14.70;99.90;;;;;;5006485;28;20265;-55
2023/09/02 04:44:37;;;;;;;3.07;2.90;;;14.70;99.90;;;;;;5009454;28;20724;-55
2023/09/02 04:47:06;;;;;;;3.20;3.00;;;14.70;99.90;;;;;;5005590;28;20590;-55
2023/09/02 04:49:34;;;;;;;3.10;2.60;;;14.80;99.90;;;;;;5009796;28;20203;-54
2023/09/02 04:52:03;;;;;;;3.13;2.83;;;14.80;99.90;;;;;;5007071;28;20257;-55
2023/09/02 04:54:30;;;;;;;3.73;3.43;;;14.90;99.90;;;;;;5010728;28;20223;-55
2023/09/02 04:56:57;;;;;;;3.10;2.73;;;14.80;99.90;;;;;;5012997;28;20219;-55
2023/09/02 04:59:24;;;;;;;3.37;3.10;;;14.80;99.90;;;;;;5009532;28;20257;-55
2023/09/02 05:01:51;;;;;;;3.27;3.07;;;14.80;99.90;;;;;;5013136;28;20261;-54
2023/09/02 05:04:18;;;;;;;4.27;3.40;;;14.70;99.90;;;;;;5012488;28;20219;-55
2023/09/02 05:06:46;;;;;;;4.40;4.10;;;14.70;99.90;;;;;;5013067;28;20870;-55
2023/09/02 05:09:13;;;;;;;2.40;2.30;;;14.70;99.90;;;;;;5011927;28;20199;-55
2023/09/02 05:11:40;;;;;;;4.77;3.83;;;14.70;99.90;;;;;;5012623;28;20211;-55
2023/09/02 05:14:07;;;;;;;4.50;3.63;;;14.70;99.90;;;;;;5011893;28;20199;-55
2023/09/02 05:16:34;;;;;;;4.80;3.57;;;14.80;99.90;;;;;;5005040;28;20219;-55
2023/09/02 05:19:01;;;;;;;4.50;4.10;;;14.80;99.90;;;;;;5011739;28;20203;-55
2023/09/02 05:21:28;;;;;;;3.50;3.30;;;14.80;99.90;;;;;;5012541;28;20195;-55
2023/09/02 05:23:56;;;;;;;3.20;3.10;;;14.90;99.90;;;;;;5010317;28;20202;-56
2023/09/02 05:26:24;;;;;;;4.33;3.43;;;15.00;99.90;;;;;;5011626;28;20199;-55
2023/09/02 05:28:51;;;;;;;3.07;2.97;;;15.10;99.90;;;;;;5012388;28;20669;-54
2023/09/02 05:31:18;;;;;;;3.40;3.10;;;15.20;99.90;;;;;;5012238;28;20727;-55
2023/09/02 05:33:46;;;;;;;3.43;3.10;;;15.30;99.90;;;;;;5011680;28;20203;-55
2023/09/02 05:36:13;;;;;;;5.00;3.10;;;15.40;99.90;;;;;;5012430;28;20234;-55
2023/09/02 05:38:40;;;;;;;4.03;3.67;;;15.60;99.90;;;;;;5012231;28;20617;-55
2023/09/02 05:41:08;;;;;;;3.60;3.33;;;16.20;99.90;;;;;;5007994;28;20211;-54
2023/09/02 05:43:35;;;;;;;3.50;3.30;;;17.20;99.90;;;;;;5011714;28;20276;-54
2023/09/02 05:46:03;;;;;;;3.77;3.47;;;18.40;99.90;;;;;;5011569;28;20736;-55
2023/09/02 05:48:30;;;;;;;2.40;2.17;;;19.60;99.90;;;;;;5012091;28;20207;-55
2023/09/02 05:50:57;;;;;;;3.57;2.70;;;20.50;99.90;;;;;;5011394;28;20211;-54
2023/09/02 05:53:29;;;;;;;3.10;2.90;;;21.40;99.90;;;;;;5011389;28;20282;-54
2023/09/02 05:55:56;;;;;;;2.53;2.33;;;21.90;99.90;;;;;;5011335;28;20648;-54
2023/09/02 05:58:24;;;;;;;2.33;2.13;;;22.80;99.90;;;;;;5007831;28;20293;-55
2023/09/02 06:00:51;;;;;;;4.30;2.60;;;23.50;99.90;;;;;;5011712;28;20261;-55
2023/09/02 06:03:19;;;;;;;2.33;2.17;;;23.70;99.90;;;;;;5009469;28;20195;-56
2023/09/02 06:05:46;;;;;;;2.10;2.00;;;23.80;99.90;;;;;;5008092;28;20223;-56
2023/09/02 06:08:15;;;;;;;2.03;1.93;;;23.50;99.90;;;;;;5008019;28;20234;-55
2023/09/02 06:10:42;;;;;;;1.90;1.80;;;24.30;99.90;;;;;;5008988;28;20203;-55
2023/09/02 06:13:09;;;;;;;2.00;1.90;;;25.10;99.90;;;;;;5006397;28;20247;-56
2023/09/02 06:15:37;;;;;;;2.20;2.10;;;25.90;99.90;;;;;;5010772;28;20223;-56
2023/09/02 06:18:05;;;;;;;1.37;1.37;;;26.60;99.90;;;;;;5009148;28;20672;-56
2023/09/02 06:20:32;;;;;;;3.30;2.30;;;26.60;99.90;;;;;;5009596;28;20249;-55
2023/09/02 06:22:59;;;;;;;4.57;2.30;;;26.30;99.90;;;;;;5009583;28;20619;-56
2023/09/02 06:25:26;;;;;;;2.13;2.03;;;26.00;99.90;;;;;;4999204;28;20237;-56
2023/09/02 06:27:53;;;;;;;2.73;2.40;;;26.10;99.90;;;;;;5010543;28;20203;-56
2023/09/02 06:30:20;;;;;;;2.20;1.70;;;25.90;99.90;;;;;;5008751;28;20296;-56
2023/09/02 06:32:48;;;;;;;1.67;1.67;;;26.40;99.90;;;;;;5008739;28;20199;-55
2023/09/02 06:35:16;;;;;;;1.80;1.73;;;26.60;99.90;;;;;;5005128;28;20215;-56
2023/09/02 06:37:42;;;;;;;1.57;1.57;;;26.60;99.90;;;;;;5012798;28;20625;-56
2023/09/02 06:40:10;;;;;;;2.03;1.93;;;26.30;99.90;;;;;;5011263;28;20219;-56
2023/09/02 06:42:37;;;;;;;2.70;1.50;;;26.10;99.90;;;;;;5006982;28;20200;-56
2023/09/02 06:45:04;;;;;;;1.87;1.87;;;26.10;99.90;;;;;;5015832;28;20226;-56
2023/09/02 06:47:31;;;;;;;2.30;1.50;;;26.60;99.90;;;;;;5010040;28;20242;-56
2023/09/02 06:50:00;;;;;;;1.40;1.40;;;27.20;99.90;;;;;;5007075;28;20269;-56
2023/09/02 06:52:27;;;;;;;1.52;1.30;;;27.50;99.90;;;;;;5009899;28;20278;-56
2023/09/02 06:54:53;;;;;;;1.83;1.73;;;27.70;99.90;;;;;;5007390;28;20226;-57
2023/09/02 06:57:20;;;;;;;2.15;1.50;;;27.60;99.90;;;;;;5002600;28;20227;-55
2023/09/02 06:59:47;;;;;;;1.83;1.70;;;27.70;99.90;;;;;;5006231;28;20266;-56
2023/09/02 07:02:14;;;;;;;5.05;1.52;;;27.70;99.90;;;;;;5003690;28;20203;-56
2023/09/02 07:04:42;;;;;;;1.85;1.75;;;28.20;99.90;;;;;;5008133;28;20223;-56
2023/09/02 07:07:11;;;;;;;2.92;1.70;;;28.40;99.90;;;;;;5007830;28;20195;-56
2023/09/02 07:09:38;;;;;;;1.10;1.10;;;28.60;99.90;;;;;;5005655;28;20207;-56
2023/09/02 07:12:05;;;;;;;1.65;1.55;;;28.50;99.90;;;;;;5008493;28;20199;-57
2023/09/02 07:14:32;;;;;;;3.70;1.77;;;28.40;99.90;;;;;;5010945;28;20226;-56
2023/09/02 07:16:59;;;;;;;1.40;1.40;;;28.70;99.90;;;;;;5009452;28;20215;-56
2023/09/02 07:19:27;;;;;;;2.13;1.38;;;28.50;99.90;;;;;;5008592;28;20203;-56
2023/09/02 07:21:56;;;;;;;2.53;1.65;;;28.50;99.90;;;;;;5008815;28;20285;-56
2023/09/02 07:24:25;;;;;;;1.40;1.33;;;28.90;99.90;;;;;;5006592;28;20231;-56
2023/09/02 07:26:52;;;;;;;1.75;1.13;;;28.70;99.90;;;;;;5008642;28;20203;-56
2023/09/02 07:29:20;;;;;;;1.60;1.40;;;27.80;99.90;;;;;;5008875;28;20203;-56
2023/09/02 07:31:47;;;;;;;1.98;1.75;;;27.50;99.90;;;;;;5007990;28;20265;-56
2023/09/02 07:34:14;;;;;;;1.63;1.42;;;27.40;99.90;;;;;;5010498;28;20998;-57
2023/09/02 07:36:42;;;;;;;1.73;1.63;;;27.70;99.90;;;;;;5009707;28;20681;-56
2023/09/02 07:39:09;;;;;;;1.75;1.65;;;27.80;99.90;;;;;;5002180;28;20253;-57
2023/09/02 07:41:38;;;;;;;3.80;1.98;;;28.40;99.90;;;;;;5012049;28;20203;-58
2023/09/02 07:44:05;;;;;;;2.80;1.98;;;28.60;99.90;;;;;;5010705;28;20831;-58
2023/09/02 07:46:32;;;;;;;1.92;1.50;;;28.90;99.90;;;;;;5011461;28;20700;-58
2023/09/02 07:48:59;;;;;;;1.52;1.52;;;29.30;99.90;;;;;;5011439;28;20625;-58
2023/09/02 07:51:26;;;;;;;1.35;1.35;;;28.90;99.90;;;;;;5010805;28;20680;-58
2023/09/02 07:53:53;;;;;;;1.92;1.40;;;29.10;99.90;;;;;;5000622;28;20349;-58
2023/09/02 07:56:22;;;;;;;2.15;2.00;;;29.50;99.90;;;;;;5011617;28;20199;-58
2023/09/02 07:58:52;;;;;;;1.92;1.83;;;29.80;99.90;;;;;;5011220;28;20705;-58
2023/09/02 08:01:20;;;;;;;1.75;1.50;;;30.00;99.90;;;;;;5011296;28;20203;-57
2023/09/02 08:03:47;;;;;;;1.20;1.20;;;30.50;99.90;;;;;;5010716;28;20207;-59
2023/09/02 08:06:14;;;;;;;1.58;1.48;;;30.00;99.90;;;;;;5011033;28;20765;-58
2023/09/02 08:08:41;;;;;;;1.35;1.30;;;30.20;99.90;;;;;;5010366;28;20717;-58
2023/09/02 08:11:08;;;;;;;1.50;1.40;;;30.40;99.90;;;;;;5003315;28;20661;-59
2023/09/02 08:13:35;;;;;;;3.42;1.30;;;30.80;99.90;;;;;;5010762;28;20314;-58
2023/09/02 08:16:06;;;;;;;1.73;1.73;;;31.30;99.90;;;;;;5011213;28;20277;-58
2023/09/02 08:18:34;;;;;;;2.90;1.70;;;31.60;99.90;;;;;;5011239;28;20314;-58
2023/09/02 08:21:01;;;;;;;1.35;1.27;;;31.30;99.90;;;;;;5009971;28;20210;-58
2023/09/02 08:23:28;;;;;;;2.10;1.27;;;31.10;99.90;;;;;;5010777;28;20817;-58
2023/09/02 08:25:55;;;;;;;1.23;1.20;;;31.00;99.90;;;;;;5009565;28;20231;-59
2023/09/02 08:28:22;;;;;;;1.40;1.30;;;31.10;99.90;;;;;;5011430;28;20203;-57
2023/09/02 08:30:49;;;;;;;1.73;1.63;;;31.00;99.90;;;;;;5015025;28;20214;-58
2023/09/02 08:33:20;;;;;;;2.08;1.90;;;31.30;99.90;;;;;;5014209;28;20250;-58
2023/09/02 08:35:47;;;;;;;1.58;1.58;;;31.50;99.90;;;;;;5009840;28;20223;-58
2023/09/02 08:38:17;;;;;;;1.55;1.45;;;31.10;99.90;;;;;;5005724;28;20269;-58
2023/09/02 08:40:44;;;;;;;1.50;1.50;;;31.10;99.90;;;;;;5006926;28;20226;-58
2023/09/02 08:43:12;;;;;;;1.50;1.40;;;31.30;99.90;;;;;;5009611;28;20296;-59
2023/09/02 08:45:44;;;;;;;1.67;1.67;;;31.50;99.90;;;;;;5011620;28;20656;-58
2023/09/02 08:48:24;;;;;;;1.55;1.55;;;30.60;99.70;;;;;;5012121;28;20203;-58
2023/09/02 08:50:53;;;;;;;1.42;1.33;;;30.80;99.90;;;;;;5014497;28;20213;-58
2023/09/02 08:53:21;;;;;;;1.55;1.55;;;30.70;99.30;;;;;;5009196;28;20733;-58
2023/09/02 08:55:50;;;;;;;1.88;1.77;;;30.80;99.90;;;;;;5014012;28;20321;-59
2023/09/02 08:58:21;;;;;;;1.50;1.42;;;30.90;99.90;;;;;;5011816;28;20221;-58
2023/09/02 09:00:50;;;;;;;2.47;2.33;;;31.20;99.90;;;;;;5011436;28;20298;-58
2023/09/02 09:03:23;;;;;;;2.65;1.77;;;31.10;99.90;;;;;;5009238;28;20262;-59
2023/09/02 09:05:51;;;;;;;2.92;2.28;;;31.10;99.90;;;;;;5009149;28;20285;-59
2023/09/02 09:08:20;;;;;;;2.00;1.90;;;31.50;99.90;;;;;;5009506;28;20254;-59
2023/09/02 09:10:48;;;;;;;2.67;1.65;;;31.70;99.90;;;;;;5011067;28;20207;-58
2023/09/02 09:13:20;;;;;;;1.40;1.40;;;32.00;99.40;;;;;;5006810;28;20604;-58
2023/09/02 09:15:48;;;;;;;2.42;2.22;;;32.30;99.30;;;;;;5010690;28;20223;-58
2023/09/02 09:18:16;;;;;;;2.72;2.53;;;31.80;97.80;;;;;;5010264;28;20630;-58
2023/09/02 09:20:44;;;;;;;1.73;1.73;;;31.00;99.90;;;;;;5012052;28;20203;-58
2023/09/02 09:23:12;;;;;;;1.92;1.65;;;31.10;99.90;;;;;;5011075;28;20223;-59
2023/09/02 09:25:39;;;;;;;1.70;1.60;;;31.60;99.10;;;;;;5006684;28;20262;-56
2023/09/02 09:28:09;;;;;;;1.33;1.25;;;32.10;98.70;;;;;;5010314;28;20203;-56
2023/09/02 09:30:36;;;;;;;2.00;1.85;;;32.10;98.80;;;;;;5009537;28;20282;-57
2023/09/02 09:33:05;;;;;;;1.33;1.23;;;32.30;99.20;;;;;;5008151;28;20269;-56
2023/09/02 09:35:32;;;;;;;2.42;1.67;;;32.60;98.60;;;;;;5010825;28;20728;-58
2023/09/02 09:38:02;;;;;;;1.52;1.42;;;32.80;98.20;;;;;;5011139;28;20240;-58
2023/09/02 09:40:31;;;;;;;2.10;1.88;;;32.30;95.80;;;;;;5009972;28;20207;-58
2023/09/02 09:42:58;;;;;;;1.58;1.58;;;32.80;95.70;;;;;;5011578;28;20261;-57
2023/09/02 09:45:25;;;;;;;1.63;1.52;;;32.90;96.70;;;;;;5008141;28;20276;-58
2023/09/02 09:47:52;;;;;;;1.52;1.50;;;33.20;96.90;;;;;;5010169;28;20226;-58
2023/09/02 09:50:19;;;;;;;3.95;1.67;;;33.30;96.10;;;;;;5011938;28;20662;-58
2023/09/02 09:52:59;;;;;;;1.30;1.30;;;33.70;95.90;;;;;;5012450;28;20326;-58
2023/09/02 09:55:30;;;;;;;1.40;1.40;;;33.70;97.00;;;;;;5011220;28;20277;-58
2023/09/02 09:57:58;;;;;;;1.60;1.50;;;33.90;95.60;;;;;;5006812;28;20223;-58
2023/09/02 10:00:25;;;;;;;1.80;1.70;;;33.70;94.00;;;;;;5013285;28;20282;-58
2023/09/02 10:02:53;;;;;;;1.98;1.98;;;33.50;96.00;;;;;;5011079;28;20277;-57
2023/09/02 10:05:26;;;;;;;1.63;1.52;;;33.40;93.80;;;;;;5011459;28;20229;-58
2023/09/02 10:08:01;;;;;;;2.05;1.95;;;33.30;96.50;;;;;;5010613;28;20199;-58
2023/09/02 10:10:31;;;;;;;1.80;1.80;;;33.30;94.70;;;;;;5011799;28;20614;-58
2023/09/02 10:12:58;;;;;;;2.55;2.28;;;33.40;97.50;;;;;;5004073;28;20269;-58
2023/09/02 10:15:26;;;;;;;2.88;2.75;;;32.70;98.60;;;;;;5011216;28;20294;-57
2023/09/02 10:17:56;;;;;;;2.90;2.80;;;32.50;98.60;;;;;;5010037;28;20223;-58
2023/09/02 10:20:26;;;;;;;4.57;3.00;;;32.70;98.90;;;;;;5006116;28;20206;-58
2023/09/02 10:22:54;;;;;;;3.13;2.78;;;33.20;99.30;;;;;;5004099;28;20207;-57
2023/09/02 10:25:28;;;;;;;3.50;3.30;;;33.20;99.70;;;;;;5010441;28;20297;-57
2023/09/02 10:28:04;;;;;;;4.18;3.97;;;32.50;99.50;;;;;;5008847;28;20680;-58
2023/09/02 10:30:42;;;;;;;3.72;3.53;;;32.40;99.90;;;;;;5011486;28;20290;-58
2023/09/02 10:33:16;;;;;;;3.13;2.83;;;31.50;99.90;;;;;;5009833;28;20207;-57
2023/09/02 10:35:46;;;;;;;4.38;3.97;;;31.70;99.90;;;;;;5010908;28;20562;-57
2023/09/02 10:38:19;;;;;;;3.40;3.25;;;31.60;99.90;;;;;;5010880;28;20207;-57
2023/09/02 10:40:54;;;;;;;4.40;4.20;;;31.50;99.90;;;;;;5011922;28;20613;-57
2023/09/02 10:43:24;;;;;;;4.18;3.83;;;31.50;99.90;;;;;;5006772;28;20245;-57
2023/09/02 10:45:52;;;;;;;4.53;3.83;;;31.10;99.90;;;;;;5010832;28;20218;-57
2023/09/02 10:48:20;;;;;;;3.38;3.17;;;30.20;99.90;;;;;;5011684;28;20256;-57
2023/09/02 10:50:48;;;;;;;3.85;3.53;;;30.40;99.90;;;;;;5009636;28;20203;-57
2023/09/02 10:53:14;;;;;;;4.35;2.67;;;30.10;99.90;;;;;;5008940;28;20199;-57
2023/09/02 10:55:59;;;;;;;3.20;2.58;;;30.10;99.90;;;;;;5010131;28;20281;-57
2023/09/02 10:58:34;;;;;;;2.30;2.20;;;29.60;99.90;;;;;;5004580;28;20333;-56
2023/09/02 11:01:04;;;;;;;3.10;2.17;;;29.50;99.90;;;;;;5008260;28;20199;-57
2023/09/02 11:03:46;;;;;;;2.33;2.22;;;29.30;99.90;;;;;;5010754;28;20604;-57
2023/09/02 11:06:15;;;;;;;3.17;2.78;;;29.10;99.90;;;;;;5010303;28;20215;-57
2023/09/02 11:08:44;;;;;;;2.38;2.28;;;28.70;99.90;;;;;;5007736;28;20290;-57
2023/09/02 11:11:12;;;;;;;4.13;3.90;;;28.60;99.90;;;;;;5007085;28;20195;-57
2023/09/02 11:14:17;;;;;;;2.78;2.65;;;28.30;99.90;;;;;;5008599;28;20310;-58
2023/09/02 11:16:46;;;;;;;4.38;3.97;;;28.20;99.90;;;;;;5002123;28;20204;-58
2023/09/02 11:19:13;;;;;;;3.78;3.58;;;27.90;99.90;;;;;;5009966;28;20225;-57
2023/09/02 11:21:42;;;;;;;4.03;3.55;;;27.60;99.90;;;;;;5009763;28;20215;-57
2023/09/02 11:24:19;;;;;;;3.17;3.08;;;27.40;99.90;;;;;;5006341;28;20195;-57
2023/09/02 11:26:53;;;;;;;4.43;4.00;;;27.40;99.90;;;;;;5007067;28;20700;-57
2023/09/02 11:29:24;;;;;;;3.13;2.85;;;27.40;99.90;;;;;;5007416;28;20198;-57
2023/09/02 11:32:00;;;;;;;2.75;2.55;;;27.30;99.90;;;;;;5010016;28;20263;-58
2023/09/02 11:34:28;;;;;;;2.30;2.13;;;27.30;99.90;;;;;;5004697;28;20273;-57
2023/09/02 11:36:56;;;;;;;2.40;2.20;;;27.40;99.90;;;;;;5008449;28;20234;-57
2023/09/02 11:39:26;;;;;;;2.72;2.60;;;27.50;99.90;;;;;;5010607;28;20225;-57
2023/09/02 11:42:06;;;;;;;2.40;2.30;;;27.50;99.90;;;;;;5010225;28;20210;-57
2023/09/02 11:44:34;;;;;;;5.20;1.88;;;27.30;99.90;;;;;;5011151;28;20219;-57
2023/09/02 11:47:03;;;;;;;3.20;2.65;;;27.20;99.90;;;;;;5009386;28;20199;-57
2023/09/02 11:49:30;;;;;;;2.60;2.47;;;27.20;99.90;;;;;;5009392;28;20258;-57
2023/09/02 11:51:58;;;;;;;2.90;2.70;;;27.10;99.90;;;;;;5009462;28;20260;-57
2023/09/02 11:54:26;;;;;;;2.13;2.03;;;26.90;99.90;;;;;;5009348;28;20227;-56
2023/09/02 11:56:58;;;;;;;2.88;2.72;;;26.80;99.90;;;;;;5009082;28;20253;-56
2023/09/02 11:59:25;;;;;;;2.75;2.03;;;26.80;99.90;;;;;;5004716;28;20285;-56
2023/09/02 12:02:09;;;;;;;2.10;1.98;;;26.70;99.90;;;;;;5009431;28;20265;-57
2023/09/02 12:04:38;;;;;;;2.50;2.30;;;26.60;99.90;;;;;;5008164;28;20222;-57
2023/09/02 12:07:05;;;;;;;2.30;2.20;;;26.50;99.90;;;;;;5013229;28;20430;-58
2023/09/02 12:09:33;;;;;;;3.47;2.20;;;26.60;99.90;;;;;;5014569;28;20289;-59
2023/09/02 12:12:04;;;;;;;2.38;2.17;;;26.50;99.90;;;;;;5014839;28;20213;-59
2023/09/02 12:14:31;;;;;;;2.45;2.35;;;26.60;99.90;;;;;;5010032;28;20228;-55
2023/09/02 12:17:00;;;;;;;2.60;2.40;;;26.60;99.90;;;;;;5010185;28;20211;-56
2023/09/02 12:19:28;;;;;;;2.20;2.00;;;26.60;99.90;;;;;;5010367;28;20215;-55
2023/09/02 12:21:56;;;;;;;2.00;1.90;;;26.60;99.90;;;;;;5006998;28;20256;-56
2023/09/02 12:24:23;;;;;;;1.60;1.57;;;26.60;99.90;;;;;;5012764;28;20272;-56
2023/09/02 12:26:51;;;;;;;2.00;1.70;;;26.40;99.90;;;;;;5012454;28;20326;-55
2023/09/02 12:29:18;;;;;;;1.93;1.93;;;26.40;99.90;;;;;;5012034;28;20253;-56
2023/09/02 12:31:51;;;;;;;1.40;1.40;;;26.40;99.90;;;;;;5012228;28;20204;-55
2023/09/02 12:34:18;;;;;;;2.00;1.90;;;26.20;99.90;;;;;;5012719;28;20585;-54
2023/09/02 12:36:47;;;;;;;1.80;1.70;;;26.40;99.90;;;;;;5011436;28;20303;-55
2023/09/02 12:39:24;;;;;;;2.10;1.90;;;26.40;99.90;;;;;;5012477;28;20219;-55
2023/09/02 12:41:51;;;;;;;1.50;1.50;;;26.40;99.90;;;;;;5013309;28;20213;-55
2023/09/02 12:44:19;;;;;;;2.60;2.10;;;26.40;99.90;;;;;;5012967;28;20509;-56
2023/09/02 12:46:46;;;;;;;1.67;1.58;;;26.40;99.90;;;;;;5011007;28;20199;-57
2023/09/02 12:49:15;;;;;;;1.30;1.20;;;26.50;99.90;;;;;;5012564;28;20246;-56
2023/09/02 12:51:42;;;;;;;2.20;2.03;;;26.60;99.90;;;;;;5012033;28;20684;-56
2023/09/02 12:54:11;;;;;;;1.70;1.63;;;26.70;99.90;;;;;;5011649;28;20208;-56
2023/09/02 12:56:38;;;;;;;2.00;1.90;;;26.70;99.90;;;;;;5010961;28;20203;-56